sensor_id;sensor_type;location;lat;lon;timestamp;temperature;humidity
8965;DHT22;4517;49.020;12.066;2023-04-24T00:01:42;10.30;99.90
8965;DHT22;4517;49.020;12.066;2023-04-24T00:04:08;10.30;99.90
8965;DHT22;4517;49.020;12.066;2023-04-24T00:06:36;10.30;99.90
8965;DHT22;4517;49.020;12.066;2023-04-24T00:09:03;10.30;99.90
8965;DHT22;4517;49.020;12.066;2023-04-24T00:11:29;10.30;99.90
8965;DHT22;4517;49.020;12.066;2023-04-24T00:13:55;10.30;99.90
8965;DHT22;4517;49.020;12.066;2023-04-24T00:16:21;10.30;99.90
8965;DHT22;4517;49.020;12.066;2023-04-24T00:18:47;10.30;99.90
8965;DHT22;4517;49.020;12.066;2023-04-24T00:21:14;10.30;99.90
8965;DHT22;4517;49.020;12.066;2023-04-24T00:23:40;10.30;99.90
8965;DHT22;4517;49.020;12.066;2023-04-24T00:26:05;10.30;99.90
8965;DHT22;4517;49.020;12.066;2023-04-24T00:28:32;10.30;99.90
8965;DHT22;4517;49.020;12.066;2023-04-24T00:30:58;10.30;99.90
8965;DHT22;4517;49.020;12.066;2023-04-24T00:33:23;10.30;99.90
8965;DHT22;4517;49.020;12.066;2023-04-24T00:35:49;10.30;99.90
8965;DHT22;4517;49.020;12.066;2023-04-24T00:38:14;10.30;99.90
8965;DHT22;4517;49.020;12.066;2023-04-24T00:40:40;10.30;99.90
8965;DHT22;4517;49.020;12.066;2023-04-24T00:43:05;10.30;99.90
8965;DHT22;4517;49.020;12.066;2023-04-24T00:45:31;10.30;99.90
8965;DHT22;4517;49.020;12.066;2023-04-24T00:47:57;10.30;99.90
8965;DHT22;4517;49.020;12.066;2023-04-24T00:50:23;10.30;99.90
8965;DHT22;4517;49.020;12.066;2023-04-24T00:52:49;10.30;99.90
8965;DHT22;4517;49.020;12.066;2023-04-24T00:55:16;10.30;99.90
8965;DHT22;4517;49.020;12.066;2023-04-24T00:57:43;10.30;99.90
8965;DHT22;4517;49.020;12.066;2023-04-24T01:00:09;10.30;99.90
8965;DHT22;4517;49.020;12.066;2023-04-24T01:02:39;10.30;99.90
8965;DHT22;4517;49.020;12.066;2023-04-24T01:05:09;10.30;99.90
8965;DHT22;4517;49.020;12.066;2023-04-24T01:07:35;10.30;99.90
8965;DHT22;4517;49.020;12.066;2023-04-24T01:10:04;10.30;99.90
8965;DHT22;4517;49.020;12.066;2023-04-24T01:12:30;10.30;99.90
8965;DHT22;4517;49.020;12.066;2023-04-24T01:14:56;10.30;99.90
8965;DHT22;4517;49.020;12.066;2023-04-24T01:17:23;10.30;99.90
8965;DHT22;4517;49.020;12.066;2023-04-24T01:19:48;10.30;99.90
8965;DHT22;4517;49.020;12.066;2023-04-24T01:22:14;10.30;99.90
8965;DHT22;4517;49.020;12.066;2023-04-24T01:24:42;10.30;99.90
8965;DHT22;4517;49.020;12.066;2023-04-24T01:27:08;10.30;99.90
8965;DHT22;4517;49.020;12.066;2023-04-24T01:29:35;10.30;99.90
8965;DHT22;4517;49.020;12.066;2023-04-24T01:32:01;10.40;99.90
8965;DHT22;4517;49.020;12.066;2023-04-24T01:34:27;10.40;99.90
8965;DHT22;4517;49.020;12.066;2023-04-24T01:37:15;10.40;99.90
8965;DHT22;4517;49.020;12.066;2023-04-24T01:39:42;10.40;99.90
8965;DHT22;4517;49.020;12.066;2023-04-24T01:42:09;10.40;99.90
8965;DHT22;4517;49.020;12.066;2023-04-24T01:44:35;10.40;99.90
8965;DHT22;4517;49.020;12.066;2023-04-24T01:47:01;10.40;99.90
8965;DHT22;4517;49.020;12.066;2023-04-24T01:49:31;10.40;99.90
8965;DHT22;4517;49.020;12.066;2023-04-24T01:51:57;10.40;99.90
8965;DHT22;4517;49.020;12.066;2023-04-24T01:54:23;10.40;99.90
8965;DHT22;4517;49.020;12.066;2023-04-24T01:56:49;10.30;99.90
8965;DHT22;4517;49.020;12.066;2023-04-24T01:59:17;10.30;99.90
8965;DHT22;4517;49.020;12.066;2023-04-24T02:01:43;10.30;99.90
8965;DHT22;4517;49.020;12.066;2023-04-24T02:04:08;10.20;99.90
8965;DHT22;4517;49.020;12.066;2023-04-24T02:06:34;10.20;99.90
8965;DHT22;4517;49.020;12.066;2023-04-24T02:09:00;10.10;99.90
8965;DHT22;4517;49.020;12.066;2023-04-24T02:11:26;10.20;99.90
8965;DHT22;4517;49.020;12.066;2023-04-24T02:13:52;10.20;99.90
8965;DHT22;4517;49.020;12.066;2023-04-24T02:16:18;10.10;99.90
8965;DHT22;4517;49.020;12.066;2023-04-24T02:18:44;10.10;99.90
8965;DHT22;4517;49.020;12.066;2023-04-24T02:21:10;10.10;99.90
8965;DHT22;4517;49.020;12.066;2023-04-24T02:23:36;10.10;99.90
8965;DHT22;4517;49.020;12.066;2023-04-24T02:26:02;10.20;99.90
8965;DHT22;4517;49.020;12.066;2023-04-24T02:28:27;10.20;99.90
8965;DHT22;4517;49.020;12.066;2023-04-24T02:30:53;10.20;99.90
8965;DHT22;4517;49.020;12.066;2023-04-24T02:33:18;10.20;99.90
8965;DHT22;4517;49.020;12.066;2023-04-24T02:35:44;10.20;99.90
8965;DHT22;4517;49.020;12.066;2023-04-24T02:38:09;10.20;99.90
8965;DHT22;4517;49.020;12.066;2023-04-24T02:40:35;10.20;99.90
8965;DHT22;4517;49.020;12.066;2023-04-24T02:43:00;10.10;99.90
8965;DHT22;4517;49.020;12.066;2023-04-24T02:45:26;10.10;99.90
8965;DHT22;4517;49.020;12.066;2023-04-24T02:47:52;10.10;99.90
8965;DHT22;4517;49.020;12.066;2023-04-24T02:50:17;10.00;99.90
8965;DHT22;4517;49.020;12.066;2023-04-24T02:52:43;10.00;99.90
8965;DHT22;4517;49.020;12.066;2023-04-24T02:55:08;10.00;99.90
8965;DHT22;4517;49.020;12.066;2023-04-24T02:57:34;9.90;99.90
8965;DHT22;4517;49.020;12.066;2023-04-24T03:00:00;9.90;99.90
8965;DHT22;4517;49.020;12.066;2023-04-24T03:02:25;9.90;99.90
8965;DHT22;4517;49.020;12.066;2023-04-24T03:04:51;10.00;99.90
8965;DHT22;4517;49.020;12.066;2023-04-24T03:07:16;9.90;99.90
8965;DHT22;4517;49.020;12.066;2023-04-24T03:09:42;9.90;99.90
8965;DHT22;4517;49.020;12.066;2023-04-24T03:12:07;9.90;99.90
8965;DHT22;4517;49.020;12.066;2023-04-24T03:14:33;9.90;99.90
8965;DHT22;4517;49.020;12.066;2023-04-24T03:16:58;9.80;99.90
8965;DHT22;4517;49.020;12.066;2023-04-24T03:19:24;9.80;99.90
8965;DHT22;4517;49.020;12.066;2023-04-24T03:21:50;9.80;99.90
8965;DHT22;4517;49.020;12.066;2023-04-24T03:24:15;9.80;99.90
8965;DHT22;4517;49.020;12.066;2023-04-24T03:26:41;9.90;99.90
8965;DHT22;4517;49.020;12.066;2023-04-24T03:29:06;9.90;99.90
8965;DHT22;4517;49.020;12.066;2023-04-24T03:31:32;9.90;99.90
8965;DHT22;4517;49.020;12.066;2023-04-24T03:33:57;9.90;99.90
8965;DHT22;4517;49.020;12.066;2023-04-24T03:36:23;9.90;99.90
8965;DHT22;4517;49.020;12.066;2023-04-24T03:38:48;9.90;99.90
8965;DHT22;4517;49.020;12.066;2023-04-24T03:41:14;9.90;99.90
8965;DHT22;4517;49.020;12.066;2023-04-24T03:43:40;9.90;99.90
8965;DHT22;4517;49.020;12.066;2023-04-24T03:46:05;9.90;99.90
8965;DHT22;4517;49.020;12.066;2023-04-24T03:48:31;9.80;99.90
8965;DHT22;4517;49.020;12.066;2023-04-24T03:50:56;9.80;99.90
8965;DHT22;4517;49.020;12.066;2023-04-24T03:53:22;9.70;99.90
8965;DHT22;4517;49.020;12.066;2023-04-24T03:55:47;9.80;99.90
8965;DHT22;4517;49.020;12.066;2023-04-24T03:58:13;9.90;99.90
8965;DHT22;4517;49.020;12.066;2023-04-24T04:00:41;9.90;99.90
8965;DHT22;4517;49.020;12.066;2023-04-24T04:03:07;9.90;99.90
8965;DHT22;4517;49.020;12.066;2023-04-24T04:05:32;9.90;99.90
8965;DHT22;4517;49.020;12.066;2023-04-24T04:07:58;9.90;99.90
8965;DHT22;4517;49.020;12.066;2023-04-24T04:10:23;10.00;99.90
8965;DHT22;4517;49.020;12.066;2023-04-24T04:12:49;10.00;99.90
8965;DHT22;4517;49.020;12.066;2023-04-24T04:15:15;10.00;99.90
8965;DHT22;4517;49.020;12.066;2023-04-24T04:17:40;10.10;99.90
8965;DHT22;4517;49.020;12.066;2023-04-24T04:20:06;10.10;99.90
8965;DHT22;4517;49.020;12.066;2023-04-24T04:22:35;10.00;99.90
8965;DHT22;4517;49.020;12.066;2023-04-24T04:25:01;9.90;99.90
8965;DHT22;4517;49.020;12.066;2023-04-24T04:27:27;9.90;99.90
8965;DHT22;4517;49.020;12.066;2023-04-24T04:29:53;9.90;99.90
8965;DHT22;4517;49.020;12.066;2023-04-24T04:32:21;9.80;99.90
8965;DHT22;4517;49.020;12.066;2023-04-24T04:34:47;9.80;99.90
8965;DHT22;4517;49.020;12.066;2023-04-24T04:37:14;9.80;99.90
8965;DHT22;4517;49.020;12.066;2023-04-24T04:39:40;9.80;99.90
8965;DHT22;4517;49.020;12.066;2023-04-24T04:42:06;9.80;99.90
8965;DHT22;4517;49.020;12.066;2023-04-24T04:44:32;9.80;99.90
8965;DHT22;4517;49.020;12.066;2023-04-24T04:46:58;9.80;99.90
8965;DHT22;4517;49.020;12.066;2023-04-24T04:49:24;9.80;99.90
8965;DHT22;4517;49.020;12.066;2023-04-24T04:51:50;9.80;99.90
8965;DHT22;4517;49.020;12.066;2023-04-24T04:54:16;9.80;99.90
8965;DHT22;4517;49.020;12.066;2023-04-24T04:56:42;9.90;99.90
8965;DHT22;4517;49.020;12.066;2023-04-24T04:59:07;10.00;99.90
8965;DHT22;4517;49.020;12.066;2023-04-24T05:01:33;9.90;99.90
8965;DHT22;4517;49.020;12.066;2023-04-24T05:03:58;9.90;99.90
8965;DHT22;4517;49.020;12.066;2023-04-24T05:06:24;9.90;99.90
8965;DHT22;4517;49.020;12.066;2023-04-24T05:08:50;9.80;99.90
8965;DHT22;4517;49.020;12.066;2023-04-24T05:11:16;9.90;99.90
8965;DHT22;4517;49.020;12.066;2023-04-24T05:13:42;9.90;99.90
8965;DHT22;4517;49.020;12.066;2023-04-24T05:16:07;9.80;99.90
8965;DHT22;4517;49.020;12.066;2023-04-24T05:18:33;9.90;99.90
8965;DHT22;4517;49.020;12.066;2023-04-24T05:20:58;10.00;99.90
8965;DHT22;4517;49.020;12.066;2023-04-24T05:23:24;10.00;99.90
8965;DHT22;4517;49.020;12.066;2023-04-24T05:25:49;10.00;99.90
8965;DHT22;4517;49.020;12.066;2023-04-24T05:28:15;10.00;99.90
8965;DHT22;4517;49.020;12.066;2023-04-24T05:30:41;10.10;99.90
8965;DHT22;4517;49.020;12.066;2023-04-24T05:33:07;10.10;99.90
8965;DHT22;4517;49.020;12.066;2023-04-24T05:35:33;10.20;99.90
8965;DHT22;4517;49.020;12.066;2023-04-24T05:37:59;10.20;99.90
8965;DHT22;4517;49.020;12.066;2023-04-24T05:40:24;10.10;99.90
8965;DHT22;4517;49.020;12.066;2023-04-24T05:42:50;10.20;99.90
8965;DHT22;4517;49.020;12.066;2023-04-24T05:45:15;10.30;99.90
8965;DHT22;4517;49.020;12.066;2023-04-24T05:47:42;10.30;99.90
8965;DHT22;4517;49.020;12.066;2023-04-24T05:50:09;10.30;99.90
8965;DHT22;4517;49.020;12.066;2023-04-24T05:52:35;10.40;99.90
8965;DHT22;4517;49.020;12.066;2023-04-24T05:55:00;10.40;99.90
8965;DHT22;4517;49.020;12.066;2023-04-24T05:57:26;10.40;99.90
8965;DHT22;4517;49.020;12.066;2023-04-24T05:59:52;10.40;99.90
8965;DHT22;4517;49.020;12.066;2023-04-24T06:02:17;10.50;99.90
8965;DHT22;4517;49.020;12.066;2023-04-24T06:04:43;10.60;99.90
8965;DHT22;4517;49.020;12.066;2023-04-24T06:07:11;10.70;99.90
8965;DHT22;4517;49.020;12.066;2023-04-24T06:09:36;10.60;99.90
8965;DHT22;4517;49.020;12.066;2023-04-24T06:12:02;10.70;99.90
8965;DHT22;4517;49.020;12.066;2023-04-24T06:14:28;10.90;99.90
8965;DHT22;4517;49.020;12.066;2023-04-24T06:16:53;11.00;99.90
8965;DHT22;4517;49.020;12.066;2023-04-24T06:19:19;11.10;99.90
8965;DHT22;4517;49.020;12.066;2023-04-24T06:21:45;11.10;99.90
8965;DHT22;4517;49.020;12.066;2023-04-24T06:24:13;11.00;99.90
8965;DHT22;4517;49.020;12.066;2023-04-24T06:26:39;11.10;99.90
8965;DHT22;4517;49.020;12.066;2023-04-24T06:29:06;11.10;99.90
8965;DHT22;4517;49.020;12.066;2023-04-24T06:31:32;11.00;99.90
8965;DHT22;4517;49.020;12.066;2023-04-24T06:34:03;11.20;99.90
8965;DHT22;4517;49.020;12.066;2023-04-24T06:36:28;11.20;99.90
8965;DHT22;4517;49.020;12.066;2023-04-24T06:38:54;11.20;99.90
8965;DHT22;4517;49.020;12.066;2023-04-24T06:41:20;11.30;99.90
8965;DHT22;4517;49.020;12.066;2023-04-24T06:43:46;11.50;99.90
8965;DHT22;4517;49.020;12.066;2023-04-24T06:46:13;11.60;99.90
8965;DHT22;4517;49.020;12.066;2023-04-24T06:48:39;11.70;99.90
8965;DHT22;4517;49.020;12.066;2023-04-24T06:51:05;11.70;99.90
8965;DHT22;4517;49.020;12.066;2023-04-24T06:53:31;12.00;99.90
8965;DHT22;4517;49.020;12.066;2023-04-24T06:55:57;12.10;99.90
8965;DHT22;4517;49.020;12.066;2023-04-24T06:58:23;12.10;99.90
8965;DHT22;4517;49.020;12.066;2023-04-24T07:00:49;12.20;99.90
8965;DHT22;4517;49.020;12.066;2023-04-24T07:03:15;12.10;99.90
8965;DHT22;4517;49.020;12.066;2023-04-24T07:05:41;12.00;99.90
8965;DHT22;4517;49.020;12.066;2023-04-24T07:08:07;12.30;99.90
8965;DHT22;4517;49.020;12.066;2023-04-24T07:10:34;12.10;99.90
8965;DHT22;4517;49.020;12.066;2023-04-24T07:13:01;12.50;99.90
8965;DHT22;4517;49.020;12.066;2023-04-24T07:15:27;12.50;99.90
8965;DHT22;4517;49.020;12.066;2023-04-24T07:17:53;12.60;99.90
8965;DHT22;4517;49.020;12.066;2023-04-24T07:20:19;12.70;99.90
8965;DHT22;4517;49.020;12.066;2023-04-24T07:22:44;12.90;99.90
8965;DHT22;4517;49.020;12.066;2023-04-24T07:25:10;13.10;99.90
8965;DHT22;4517;49.020;12.066;2023-04-24T07:27:36;13.30;99.90
8965;DHT22;4517;49.020;12.066;2023-04-24T07:30:04;13.60;99.90
8965;DHT22;4517;49.020;12.066;2023-04-24T07:32:30;13.80;99.90
8965;DHT22;4517;49.020;12.066;2023-04-24T07:34:55;14.00;99.90
8965;DHT22;4517;49.020;12.066;2023-04-24T07:37:22;14.10;99.90
8965;DHT22;4517;49.020;12.066;2023-04-24T07:39:48;14.30;99.90
8965;DHT22;4517;49.020;12.066;2023-04-24T07:42:14;14.40;99.90
8965;DHT22;4517;49.020;12.066;2023-04-24T07:44:40;14.50;99.90
8965;DHT22;4517;49.020;12.066;2023-04-24T07:47:06;14.60;99.90
8965;DHT22;4517;49.020;12.066;2023-04-24T07:49:31;14.60;99.90
8965;DHT22;4517;49.020;12.066;2023-04-24T07:51:59;14.80;99.90
8965;DHT22;4517;49.020;12.066;2023-04-24T07:54:27;14.90;99.90
8965;DHT22;4517;49.020;12.066;2023-04-24T07:56:53;15.00;99.90
8965;DHT22;4517;49.020;12.066;2023-04-24T07:59:19;15.20;99.90
8965;DHT22;4517;49.020;12.066;2023-04-24T08:01:45;15.40;99.90
8965;DHT22;4517;49.020;12.066;2023-04-24T08:04:11;15.40;99.90
8965;DHT22;4517;49.020;12.066;2023-04-24T08:06:36;15.50;99.90
8965;DHT22;4517;49.020;12.066;2023-04-24T08:09:02;15.60;99.90
8965;DHT22;4517;49.020;12.066;2023-04-24T08:11:28;16.00;99.90
8965;DHT22;4517;49.020;12.066;2023-04-24T08:13:54;16.40;99.90
8965;DHT22;4517;49.020;12.066;2023-04-24T08:16:20;17.00;99.90
8965;DHT22;4517;49.020;12.066;2023-04-24T08:18:45;17.30;99.90
8965;DHT22;4517;49.020;12.066;2023-04-24T08:21:11;17.30;99.90
8965;DHT22;4517;49.020;12.066;2023-04-24T08:23:38;17.70;99.90
8965;DHT22;4517;49.020;12.066;2023-04-24T08:26:03;17.80;99.90
8965;DHT22;4517;49.020;12.066;2023-04-24T08:28:30;17.90;99.90
8965;DHT22;4517;49.020;12.066;2023-04-24T08:30:55;17.60;99.90
8965;DHT22;4517;49.020;12.066;2023-04-24T08:33:24;16.60;99.90
8965;DHT22;4517;49.020;12.066;2023-04-24T08:35:50;14.00;99.90
8965;DHT22;4517;49.020;12.066;2023-04-24T08:38:16;13.10;99.90
8965;DHT22;4517;49.020;12.066;2023-04-24T08:40:42;12.40;99.90
8965;DHT22;4517;49.020;12.066;2023-04-24T08:43:08;11.80;99.90
8965;DHT22;4517;49.020;12.066;2023-04-24T08:45:34;11.40;99.90
8965;DHT22;4517;49.020;12.066;2023-04-24T08:48:00;10.90;99.90
8965;DHT22;4517;49.020;12.066;2023-04-24T08:50:28;10.30;99.90
8965;DHT22;4517;49.020;12.066;2023-04-24T08:52:54;10.10;99.90
8965;DHT22;4517;49.020;12.066;2023-04-24T08:55:20;10.20;99.90
8965;DHT22;4517;49.020;12.066;2023-04-24T08:57:51;10.40;99.90
8965;DHT22;4517;49.020;12.066;2023-04-24T09:00:21;10.80;99.90
8965;DHT22;4517;49.020;12.066;2023-04-24T09:02:49;11.20;99.90
8965;DHT22;4517;49.020;12.066;2023-04-24T09:05:24;11.50;99.90
8965;DHT22;4517;49.020;12.066;2023-04-24T09:08:17;11.80;99.90
8965;DHT22;4517;49.020;12.066;2023-04-24T09:10:51;12.00;99.90
8965;DHT22;4517;49.020;12.066;2023-04-24T09:13:32;12.10;99.90
8965;DHT22;4517;49.020;12.066;2023-04-24T09:15:59;12.20;99.90
8965;DHT22;4517;49.020;12.066;2023-04-24T09:18:56;12.60;99.90
8965;DHT22;4517;49.020;12.066;2023-04-24T09:24:23;14.00;99.90
8965;DHT22;4517;49.020;12.066;2023-04-24T09:27:23;14.50;99.90
8965;DHT22;4517;49.020;12.066;2023-04-24T09:29:56;15.10;99.90
8965;DHT22;4517;49.020;12.066;2023-04-24T09:32:22;15.60;99.90
8965;DHT22;4517;49.020;12.066;2023-04-24T09:35:14;15.40;99.90
8965;DHT22;4517;49.020;12.066;2023-04-24T09:37:46;15.00;99.90
8965;DHT22;4517;49.020;12.066;2023-04-24T09:40:19;14.90;99.90
8965;DHT22;4517;49.020;12.066;2023-04-24T09:42:55;15.10;99.90
8965;DHT22;4517;49.020;12.066;2023-04-24T09:45:22;14.90;99.90
8965;DHT22;4517;49.020;12.066;2023-04-24T09:47:52;14.90;99.90
8965;DHT22;4517;49.020;12.066;2023-04-24T09:50:19;14.90;99.90
8965;DHT22;4517;49.020;12.066;2023-04-24T09:52:55;14.90;99.90
8965;DHT22;4517;49.020;12.066;2023-04-24T09:55:21;14.80;99.90
8965;DHT22;4517;49.020;12.066;2023-04-24T09:58:01;15.30;99.90
8965;DHT22;4517;49.020;12.066;2023-04-24T10:00:32;15.20;99.90
8965;DHT22;4517;49.020;12.066;2023-04-24T10:03:05;15.30;99.90
8965;DHT22;4517;49.020;12.066;2023-04-24T10:05:37;15.70;99.90
8965;DHT22;4517;49.020;12.066;2023-04-24T10:08:08;16.00;99.90
8965;DHT22;4517;49.020;12.066;2023-04-24T10:10:42;15.80;99.90
8965;DHT22;4517;49.020;12.066;2023-04-24T10:13:13;15.40;99.90
8965;DHT22;4517;49.020;12.066;2023-04-24T10:15:42;14.80;99.90
8965;DHT22;4517;49.020;12.066;2023-04-24T10:18:08;14.50;99.90
8965;DHT22;4517;49.020;12.066;2023-04-24T10:20:37;14.40;99.90
8965;DHT22;4517;49.020;12.066;2023-04-24T10:23:04;14.50;99.90
8965;DHT22;4517;49.020;12.066;2023-04-24T10:25:31;14.50;99.90
8965;DHT22;4517;49.020;12.066;2023-04-24T10:27:58;14.20;99.90
8965;DHT22;4517;49.020;12.066;2023-04-24T10:30:32;14.00;99.90
8965;DHT22;4517;49.020;12.066;2023-04-24T10:33:01;14.00;99.90
8965;DHT22;4517;49.020;12.066;2023-04-24T10:35:31;14.20;99.90
8965;DHT22;4517;49.020;12.066;2023-04-24T10:38:01;14.30;99.90
8965;DHT22;4517;49.020;12.066;2023-04-24T10:40:33;14.60;99.90
8965;DHT22;4517;49.020;12.066;2023-04-24T10:43:02;14.60;99.90
8965;DHT22;4517;49.020;12.066;2023-04-24T10:45:28;14.60;99.90
8965;DHT22;4517;49.020;12.066;2023-04-24T10:48:01;14.50;99.90
8965;DHT22;4517;49.020;12.066;2023-04-24T10:50:45;14.80;99.90
8965;DHT22;4517;49.020;12.066;2023-04-24T10:53:20;14.80;99.90
8965;DHT22;4517;49.020;12.066;2023-04-24T10:58:12;15.40;99.90
8965;DHT22;4517;49.020;12.066;2023-04-24T11:00:39;15.70;99.90
8965;DHT22;4517;49.020;12.066;2023-04-24T11:03:23;15.60;99.90
8965;DHT22;4517;49.020;12.066;2023-04-24T11:06:02;15.50;99.90
8965;DHT22;4517;49.020;12.066;2023-04-24T11:08:45;15.60;99.90
8965;DHT22;4517;49.020;12.066;2023-04-24T11:11:13;15.40;99.90
8965;DHT22;4517;49.020;12.066;2023-04-24T11:18:52;14.70;99.90
8965;DHT22;4517;49.020;12.066;2023-04-24T11:21:20;14.50;99.90
8965;DHT22;4517;49.020;12.066;2023-04-24T11:23:47;14.60;99.90
8965;DHT22;4517;49.020;12.066;2023-04-24T11:26:26;14.60;99.90
8965;DHT22;4517;49.020;12.066;2023-04-24T11:29:07;14.60;99.90
8965;DHT22;4517;49.020;12.066;2023-04-24T11:31:39;14.10;99.90
8965;DHT22;4517;49.020;12.066;2023-04-24T11:34:13;13.70;99.90
8965;DHT22;4517;49.020;12.066;2023-04-24T11:36:42;13.30;99.90
8965;DHT22;4517;49.020;12.066;2023-04-24T11:39:08;12.70;99.90
8965;DHT22;4517;49.020;12.066;2023-04-24T11:41:34;12.40;99.90
8965;DHT22;4517;49.020;12.066;2023-04-24T11:44:06;12.10;99.90
8965;DHT22;4517;49.020;12.066;2023-04-24T11:46:32;12.10;99.90
8965;DHT22;4517;49.020;12.066;2023-04-24T11:48:58;12.40;99.90
8965;DHT22;4517;49.020;12.066;2023-04-24T11:51:25;13.00;99.90
8965;DHT22;4517;49.020;12.066;2023-04-24T11:53:52;13.70;99.90
8965;DHT22;4517;49.020;12.066;2023-04-24T11:56:18;14.10;99.90
8965;DHT22;4517;49.020;12.066;2023-04-24T11:58:45;14.70;99.90
8965;DHT22;4517;49.020;12.066;2023-04-24T12:01:14;15.20;99.90
8965;DHT22;4517;49.020;12.066;2023-04-24T12:03:40;15.40;99.90
8965;DHT22;4517;49.020;12.066;2023-04-24T12:06:10;15.10;99.90
8965;DHT22;4517;49.020;12.066;2023-04-24T12:08:37;15.10;99.90
8965;DHT22;4517;49.020;12.066;2023-04-24T12:11:06;14.90;99.90
8965;DHT22;4517;49.020;12.066;2023-04-24T12:13:34;15.10;99.90
8965;DHT22;4517;49.020;12.066;2023-04-24T12:16:03;15.10;99.90
8965;DHT22;4517;49.020;12.066;2023-04-24T12:18:30;14.90;99.90
8965;DHT22;4517;49.020;12.066;2023-04-24T12:21:21;14.70;99.90
8965;DHT22;4517;49.020;12.066;2023-04-24T12:23:47;14.80;99.90
8965;DHT22;4517;49.020;12.066;2023-04-24T12:26:18;14.70;99.90
8965;DHT22;4517;49.020;12.066;2023-04-24T12:28:48;14.90;99.90
8965;DHT22;4517;49.020;12.066;2023-04-24T12:31:17;15.20;99.90
8965;DHT22;4517;49.020;12.066;2023-04-24T12:33:43;14.80;99.90
8965;DHT22;4517;49.020;12.066;2023-04-24T12:36:12;15.00;99.90
8965;DHT22;4517;49.020;12.066;2023-04-24T12:38:39;15.30;99.90
8965;DHT22;4517;49.020;12.066;2023-04-24T12:41:11;15.40;99.90
8965;DHT22;4517;49.020;12.066;2023-04-24T12:43:37;15.70;99.90
8965;DHT22;4517;49.020;12.066;2023-04-24T12:46:03;16.10;99.90
8965;DHT22;4517;49.020;12.066;2023-04-24T12:48:30;16.00;99.90
8965;DHT22;4517;49.020;12.066;2023-04-24T12:50:59;16.20;99.90
8965;DHT22;4517;49.020;12.066;2023-04-24T12:53:28;15.80;99.90
8965;DHT22;4517;49.020;12.066;2023-04-24T12:55:55;15.70;99.90
8965;DHT22;4517;49.020;12.066;2023-04-24T12:58:21;16.00;99.90
8965;DHT22;4517;49.020;12.066;2023-04-24T13:00:48;16.00;99.90
8965;DHT22;4517;49.020;12.066;2023-04-24T13:03:14;15.70;99.90
8965;DHT22;4517;49.020;12.066;2023-04-24T13:05:40;15.50;99.90
8965;DHT22;4517;49.020;12.066;2023-04-24T13:08:05;14.80;99.90
8965;DHT22;4517;49.020;12.066;2023-04-24T13:10:31;14.40;99.90
8965;DHT22;4517;49.020;12.066;2023-04-24T13:12:57;14.10;99.90
8965;DHT22;4517;49.020;12.066;2023-04-24T13:15:22;13.90;99.90
8965;DHT22;4517;49.020;12.066;2023-04-24T13:17:48;13.80;99.90
8965;DHT22;4517;49.020;12.066;2023-04-24T13:20:14;13.80;99.90
8965;DHT22;4517;49.020;12.066;2023-04-24T13:22:40;13.90;99.90
8965;DHT22;4517;49.020;12.066;2023-04-24T13:25:06;14.20;99.90
8965;DHT22;4517;49.020;12.066;2023-04-24T13:27:32;14.80;99.90
8965;DHT22;4517;49.020;12.066;2023-04-24T13:29:58;15.20;99.90
8965;DHT22;4517;49.020;12.066;2023-04-24T13:32:23;15.30;99.90
8965;DHT22;4517;49.020;12.066;2023-04-24T13:34:49;15.00;99.90
8965;DHT22;4517;49.020;12.066;2023-04-24T13:37:17;14.70;99.90
8965;DHT22;4517;49.020;12.066;2023-04-24T13:39:42;14.50;99.90
8965;DHT22;4517;49.020;12.066;2023-04-24T13:42:08;14.70;99.90
8965;DHT22;4517;49.020;12.066;2023-04-24T13:44:34;14.80;99.90
8965;DHT22;4517;49.020;12.066;2023-04-24T13:47:00;14.90;99.90
8965;DHT22;4517;49.020;12.066;2023-04-24T13:49:26;14.90;99.90
8965;DHT22;4517;49.020;12.066;2023-04-24T13:51:53;14.90;99.90
8965;DHT22;4517;49.020;12.066;2023-04-24T13:54:19;14.80;99.90
8965;DHT22;4517;49.020;12.066;2023-04-24T13:56:44;14.90;99.90
8965;DHT22;4517;49.020;12.066;2023-04-24T13:59:14;14.80;99.90
8965;DHT22;4517;49.020;12.066;2023-04-24T14:01:40;14.70;99.90
8965;DHT22;4517;49.020;12.066;2023-04-24T14:04:05;14.70;99.90
8965;DHT22;4517;49.020;12.066;2023-04-24T14:06:31;14.60;99.90
8965;DHT22;4517;49.020;12.066;2023-04-24T14:08:57;14.50;99.90
8965;DHT22;4517;49.020;12.066;2023-04-24T14:11:23;14.40;99.90
8965;DHT22;4517;49.020;12.066;2023-04-24T14:13:49;14.20;99.90
8965;DHT22;4517;49.020;12.066;2023-04-24T14:16:15;13.70;99.90
8965;DHT22;4517;49.020;12.066;2023-04-24T14:18:41;13.50;99.90
8965;DHT22;4517;49.020;12.066;2023-04-24T14:21:06;13.40;99.90
8965;DHT22;4517;49.020;12.066;2023-04-24T14:23:33;13.20;99.90
8965;DHT22;4517;49.020;12.066;2023-04-24T14:25:58;13.10;99.90
8965;DHT22;4517;49.020;12.066;2023-04-24T14:28:24;13.10;99.90
8965;DHT22;4517;49.020;12.066;2023-04-24T14:30:51;13.20;99.90
8965;DHT22;4517;49.020;12.066;2023-04-24T14:33:18;13.30;99.90
8965;DHT22;4517;49.020;12.066;2023-04-24T14:35:43;13.40;99.90
8965;DHT22;4517;49.020;12.066;2023-04-24T14:38:11;13.50;99.90
8965;DHT22;4517;49.020;12.066;2023-04-24T14:40:37;13.30;99.90
8965;DHT22;4517;49.020;12.066;2023-04-24T14:43:03;13.60;99.90
8965;DHT22;4517;49.020;12.066;2023-04-24T14:45:29;13.60;99.90
8965;DHT22;4517;49.020;12.066;2023-04-24T14:47:55;13.50;99.90
8965;DHT22;4517;49.020;12.066;2023-04-24T14:50:21;13.20;99.90
8965;DHT22;4517;49.020;12.066;2023-04-24T14:52:47;13.00;99.90
8965;DHT22;4517;49.020;12.066;2023-04-24T14:55:13;12.80;99.90
8965;DHT22;4517;49.020;12.066;2023-04-24T14:57:38;13.00;99.90
8965;DHT22;4517;49.020;12.066;2023-04-24T15:00:05;13.10;99.90
8965;DHT22;4517;49.020;12.066;2023-04-24T15:02:33;13.30;99.90
8965;DHT22;4517;49.020;12.066;2023-04-24T15:04:59;13.10;99.90
8965;DHT22;4517;49.020;12.066;2023-04-24T15:07:25;13.30;99.90
8965;DHT22;4517;49.020;12.066;2023-04-24T15:09:50;13.60;99.90
8965;DHT22;4517;49.020;12.066;2023-04-24T15:12:16;13.90;99.90
8965;DHT22;4517;49.020;12.066;2023-04-24T15:14:42;14.10;99.90
8965;DHT22;4517;49.020;12.066;2023-04-24T15:17:07;14.00;99.90
8965;DHT22;4517;49.020;12.066;2023-04-24T15:19:33;14.00;99.90
8965;DHT22;4517;49.020;12.066;2023-04-24T15:21:58;13.70;99.90
8965;DHT22;4517;49.020;12.066;2023-04-24T15:24:24;13.50;99.90
8965;DHT22;4517;49.020;12.066;2023-04-24T15:26:51;13.60;99.90
8965;DHT22;4517;49.020;12.066;2023-04-24T15:29:18;13.50;99.90
8965;DHT22;4517;49.020;12.066;2023-04-24T15:31:43;13.70;99.90
8965;DHT22;4517;49.020;12.066;2023-04-24T15:34:09;13.70;99.90
8965;DHT22;4517;49.020;12.066;2023-04-24T15:36:34;13.70;99.90
8965;DHT22;4517;49.020;12.066;2023-04-24T15:39:03;13.90;99.90
8965;DHT22;4517;49.020;12.066;2023-04-24T15:41:28;14.00;99.90
8965;DHT22;4517;49.020;12.066;2023-04-24T15:43:54;14.00;99.90
8965;DHT22;4517;49.020;12.066;2023-04-24T15:46:20;14.00;99.90
8965;DHT22;4517;49.020;12.066;2023-04-24T15:48:45;14.00;99.90
8965;DHT22;4517;49.020;12.066;2023-04-24T15:51:11;14.00;99.90
8965;DHT22;4517;49.020;12.066;2023-04-24T15:53:36;14.10;99.90
8965;DHT22;4517;49.020;12.066;2023-04-24T15:56:02;14.10;99.90
8965;DHT22;4517;49.020;12.066;2023-04-24T15:58:28;13.90;99.90